Time;durP1;ratioP1;P1;durP2;ratioP2;P2;SDS_P1;SDS_P2;PMS_P1;PMS_P2;Temp;Humidity;BMP_temperature;BMP_pressure;BME280_temperature;BME280_humidity;BME280_pressure;Samples;Min_cycle;Max_cycle;Signal;HPM_P1;HPM_P2
2023/07/01 00:02:15;;;;;;;3.23;2.50;;;;;;;;;;6233237;22;20380;-90
2023/07/01 00:04:41;;;;;;;2.90;2.40;;;;;;;;;;6232715;22;20380;-90
2023/07/01 00:07:07;;;;;;;3.60;2.13;;;;;;;;;;6230868;22;20428;-90
2023/07/01 00:09:33;;;;;;;4.97;2.20;;;;;;;;;;6233981;22;20370;-89
2023/07/01 00:11:59;;;;;;;3.90;2.47;;;;;;;;;;6231327;22;20439;-89
2023/07/01 00:14:25;;;;;;;3.17;1.90;;;;;;;;;;6258511;22;20361;-90
2023/07/01 00:16:51;;;;;;;3.80;2.57;;;;;;;;;;6233633;22;20384;-90
2023/07/01 00:19:17;;;;;;;2.53;2.17;;;;;;;;;;6234927;22;20667;-90
2023/07/01 00:21:43;;;;;;;4.10;2.30;;;;;;;;;;6231018;22;20384;-90
2023/07/01 00:24:09;;;;;;;3.40;2.37;;;;;;;;;;6232769;22;20437;-92
2023/07/01 00:26:36;;;;;;;2.97;1.77;;;;;;;;;;6231879;22;20798;-90
2023/07/01 00:29:02;;;;;;;5.33;2.70;;;;;;;;;;6232694;22;20433;-90
2023/07/01 00:31:28;;;;;;;5.60;2.60;;;;;;;;;;6230757;22;20417;-89
2023/07/01 00:33:54;;;;;;;2.63;2.00;;;;;;;;;;6233816;22;20384;-90
2023/07/01 00:36:19;;;;;;;4.13;2.30;;;;;;;;;;6231446;22;20727;-90
2023/07/01 00:38:45;;;;;;;7.93;2.70;;;;;;;;;;6232828;22;20381;-90
2023/07/01 00:41:12;;;;;;;2.70;2.33;;;;;;;;;;6257825;22;20393;-90
2023/07/01 00:43:38;;;;;;;2.60;2.10;;;;;;;;;;6231887;22;21008;-90
2023/07/01 00:46:04;;;;;;;2.63;1.73;;;;;;;;;;6231040;22;20837;-90
2023/07/01 00:48:30;;;;;;;2.93;2.03;;;;;;;;;;6232674;22;20379;-90
2023/07/01 00:50:56;;;;;;;3.90;2.10;;;;;;;;;;6230373;22;20475;-90
2023/07/01 00:53:22;;;;;;;3.20;2.03;;;;;;;;;;6230921;22;20737;-90
2023/07/01 00:55:48;;;;;;;3.93;2.30;;;;;;;;;;6231026;22;20385;-91
2023/07/01 00:58:14;;;;;;;4.00;2.50;;;;;;;;;;6231286;22;20382;-91
2023/07/01 01:00:40;;;;;;;5.93;2.90;;;;;;;;;;6229623;22;20856;-91
2023/07/01 01:03:14;;;;;;;5.93;2.10;;;;;;;;;;6231051;22;20382;-91
2023/07/01 01:05:57;;;;;;;4.30;2.10;;;;;;;;;;6281993;22;20365;-89
2023/07/01 01:08:31;;;;;;;9.60;2.53;;;;;;;;;;6254474;22;20388;-91
2023/07/01 01:10:57;;;;;;;3.80;2.17;;;;;;;;;;6230648;22;20416;-91
2023/07/01 01:13:23;;;;;;;2.90;2.27;;;;;;;;;;6230050;22;20378;-90
2023/07/01 01:15:49;;;;;;;2.77;2.40;;;;;;;;;;6232073;22;20377;-92
2023/07/01 01:18:16;;;;;;;3.67;2.60;;;;;;;;;;6232440;22;20380;-90
2023/07/01 01:20:43;;;;;;;2.43;1.43;;;;;;;;;;6230487;22;20439;-91
2023/07/01 01:23:14;;;;;;;2.40;2.03;;;;;;;;;;6231612;22;20377;-91
2023/07/01 01:26:13;;;;;;;2.80;2.20;;;;;;;;;;6230704;22;20374;-91
2023/07/01 01:28:39;;;;;;;3.80;2.17;;;;;;;;;;6170295;23;20375;-91
2023/07/01 01:31:05;;;;;;;2.97;2.20;;;;;;;;;;6170542;23;20650;-91
2023/07/01 01:33:31;;;;;;;2.90;2.20;;;;;;;;;;6171499;23;20379;-91
2023/07/01 01:36:01;;;;;;;3.73;2.77;;;;;;;;;;6199277;23;20394;-91
2023/07/01 01:38:29;;;;;;;4.37;2.50;;;;;;;;;;6170608;23;20383;-92
2023/07/01 01:41:02;;;;;;;2.87;2.10;;;;;;;;;;6172166;23;20403;-91
2023/07/01 01:43:34;;;;;;;3.97;2.53;;;;;;;;;;6169395;23;20379;-91
2023/07/01 01:46:00;;;;;;;3.00;2.47;;;;;;;;;;6169960;23;20375;-91
2023/07/01 01:48:26;;;;;;;4.20;2.87;;;;;;;;;;6168625;23;20386;-91
2023/07/01 01:50:52;;;;;;;3.17;2.57;;;;;;;;;;6171428;23;20430;-91
2023/07/01 01:53:18;;;;;;;4.50;2.83;;;;;;;;;;6167661;23;20375;-91
2023/07/01 01:55:44;;;;;;;4.13;2.27;;;;;;;;;;6168824;23;20379;-91
2023/07/01 01:58:10;;;;;;;4.90;2.47;;;;;;;;;;6169316;23;20386;-91
2023/07/01 02:00:36;;;;;;;4.27;2.30;;;;;;;;;;6227287;22;20483;-91
2023/07/01 02:03:02;;;;;;;3.00;2.37;;;;;;;;;;6231090;22;20424;-91
2023/07/01 02:05:28;;;;;;;5.67;3.10;;;;;;;;;;6235655;22;20373;-91
2023/07/01 02:07:54;;;;;;;3.70;3.20;;;;;;;;;;6231879;22;20412;-91
2023/07/01 02:10:20;;;;;;;3.73;2.60;;;;;;;;;;6231349;22;20420;-91
2023/07/01 02:12:46;;;;;;;3.60;2.97;;;;;;;;;;6228042;22;20420;-91
2023/07/01 02:15:12;;;;;;;3.67;2.60;;;;;;;;;;6231108;22;20411;-91
2023/07/01 02:17:38;;;;;;;3.20;2.73;;;;;;;;;;6229916;22;20389;-91
2023/07/01 02:20:05;;;;;;;3.73;2.90;;;;;;;;;;6233111;22;20385;-92
2023/07/01 02:22:31;;;;;;;4.10;2.43;;;;;;;;;;6188514;23;20394;-91
2023/07/01 02:24:57;;;;;;;3.20;2.60;;;;;;;;;;6140054;23;20399;-91
2023/07/01 02:27:23;;;;;;;4.87;2.80;;;;;;;;;;6139566;23;20406;-92
2023/07/01 02:29:49;;;;;;;4.03;2.47;;;;;;;;;;6140799;23;20384;-92
2023/07/01 02:32:15;;;;;;;6.20;2.80;;;;;;;;;;6140559;23;20380;-91
2023/07/01 02:34:41;;;;;;;5.20;3.23;;;;;;;;;;6139524;23;20373;-91
2023/07/01 02:37:07;;;;;;;2.97;2.20;;;;;;;;;;6164163;23;20395;-91
2023/07/01 02:39:33;;;;;;;4.17;2.50;;;;;;;;;;6141592;23;20900;-91
2023/07/01 02:41:59;;;;;;;4.60;2.80;;;;;;;;;;6141128;23;20392;-92
2023/07/01 02:44:25;;;;;;;4.97;3.40;;;;;;;;;;6140635;23;20479;-91
2023/07/01 02:46:51;;;;;;;3.97;2.57;;;;;;;;;;6140866;23;20384;-91
2023/07/01 02:49:17;;;;;;;3.13;2.80;;;;;;;;;;6139397;23;20372;-92
2023/07/01 02:51:43;;;;;;;4.07;2.90;;;;;;;;;;6139806;23;20470;-91
2023/07/01 02:54:09;;;;;;;8.73;2.93;;;;;;;;;;6212267;22;20841;-91
2023/07/01 02:56:35;;;;;;;5.57;2.90;;;;;;;;;;6229924;22;20380;-91
2023/07/01 02:59:01;;;;;;;3.27;2.80;;;;;;;;;;6231806;22;20445;-92
2023/07/01 03:01:26;;;;;;;4.03;2.60;;;;;;;;;;6230870;22;20385;-91
2023/07/01 03:03:53;;;;;;;6.00;3.40;;;;;;;;;;6231910;22;20409;-91
2023/07/01 03:06:19;;;;;;;5.67;2.93;;;;;;;;;;6232629;22;20389;-92
2023/07/01 03:08:45;;;;;;;7.83;3.57;;;;;;;;;;6233520;22;20399;-91
2023/07/01 03:11:11;;;;;;;3.43;2.50;;;;;;;;;;6233545;22;20453;-92
2023/07/01 03:13:37;;;;;;;4.37;3.10;;;;;;;;;;6231976;22;20365;-91
2023/07/01 03:16:06;;;;;;;3.50;2.23;;;;;;;;;;6261633;22;20376;-92
2023/07/01 03:18:33;;;;;;;3.83;2.73;;;;;;;;;;6233369;22;20373;-91
2023/07/01 03:21:00;;;;;;;3.63;2.90;;;;;;;;;;6235485;22;20389;-92
2023/07/01 03:23:27;;;;;;;3.77;2.90;;;;;;;;;;6231547;22;20381;-92
2023/07/01 03:25:53;;;;;;;7.77;3.17;;;;;;;;;;6230932;22;20426;-92
2023/07/01 03:28:19;;;;;;;4.57;3.40;;;;;;;;;;6224743;23;20386;-91
2023/07/01 03:30:45;;;;;;;5.23;3.33;;;;;;;;;;6201481;23;20460;-92
2023/07/01 03:33:12;;;;;;;3.43;3.10;;;;;;;;;;6200092;23;20386;-92
2023/07/01 03:35:38;;;;;;;4.53;2.93;;;;;;;;;;6198973;23;20435;-92
2023/07/01 03:38:04;;;;;;;4.80;3.10;;;;;;;;;;6198600;23;20414;-92
2023/07/01 03:40:30;;;;;;;4.50;3.40;;;;;;;;;;6201819;22;20406;-91
2023/07/01 03:42:56;;;;;;;4.13;2.60;;;;;;;;;;6197993;23;20449;-91
2023/07/01 03:45:22;;;;;;;4.27;2.90;;;;;;;;;;6197821;23;20382;-91
2023/07/01 03:47:48;;;;;;;3.27;2.83;;;;;;;;;;6197592;23;20394;-93
2023/07/01 03:50:14;;;;;;;5.40;3.40;;;;;;;;;;6201077;23;20429;-90
2023/07/01 03:52:41;;;;;;;3.80;2.93;;;;;;;;;;6198390;23;20388;-92
2023/07/01 03:55:07;;;;;;;3.87;2.60;;;;;;;;;;6200197;23;20790;-92
2023/07/01 03:57:33;;;;;;;7.50;2.63;;;;;;;;;;6199759;23;20401;-92
2023/07/01 03:59:59;;;;;;;4.20;3.03;;;;;;;;;;6226543;22;20373;-92
2023/07/01 04:02:25;;;;;;;4.20;3.20;;;;;;;;;;6229795;22;20550;-92
2023/07/01 04:04:51;;;;;;;4.13;2.90;;;;;;;;;;6231456;22;20373;-92
2023/07/01 04:07:21;;;;;;;5.63;3.40;;;;;;;;;;6230250;22;20834;-92
2023/07/01 04:09:49;;;;;;;3.30;2.70;;;;;;;;;;6231328;22;20381;-92
2023/07/01 04:12:15;;;;;;;6.00;3.60;;;;;;;;;;6231178;22;20772;-92
2023/07/01 04:14:41;;;;;;;4.60;2.70;;;;;;;;;;6230550;22;20366;-91
2023/07/01 04:17:07;;;;;;;7.97;3.60;;;;;;;;;;6230373;22;20385;-91
2023/07/01 04:19:34;;;;;;;4.17;3.33;;;;;;;;;;6231382;22;20763;-92
2023/07/01 04:22:00;;;;;;;3.53;3.10;;;;;;;;;;6229643;22;20431;-91
2023/07/01 04:24:26;;;;;;;4.40;3.20;;;;;;;;;;6231281;22;20369;-92
2023/07/01 04:26:52;;;;;;;4.60;3.33;;;;;;;;;;6230597;22;20426;-92
2023/07/01 04:29:18;;;;;;;4.93;3.50;;;;;;;;;;6230693;22;20406;-91
2023/07/01 04:31:44;;;;;;;4.47;2.90;;;;;;;;;;6230584;22;21054;-92
2023/07/01 04:34:09;;;;;;;4.27;2.83;;;;;;;;;;6228904;22;20453;-91
2023/07/01 04:36:35;;;;;;;4.17;3.17;;;;;;;;;;6229859;22;20381;-91
2023/07/01 04:39:02;;;;;;;6.70;2.93;;;;;;;;;;6231137;22;20382;-92
2023/07/01 04:41:28;;;;;;;3.10;2.50;;;;;;;;;;6230011;22;20375;-91
2023/07/01 04:43:54;;;;;;;18.53;3.63;;;;;;;;;;6230536;22;20413;-91
2023/07/01 04:46:20;;;;;;;4.50;3.93;;;;;;;;;;6231883;22;20461;-92
2023/07/01 04:48:46;;;;;;;4.90;3.40;;;;;;;;;;6231238;22;20378;-92
2023/07/01 04:51:12;;;;;;;5.20;3.07;;;;;;;;;;6233080;22;20425;-91
2023/07/01 04:53:39;;;;;;;3.27;2.97;;;;;;;;;;6229913;22;20410;-89
2023/07/01 04:56:05;;;;;;;5.67;3.40;;;;;;;;;;6231510;22;20906;-93
2023/07/01 04:58:31;;;;;;;4.60;3.27;;;;;;;;;;6229634;22;20874;-92
2023/07/01 05:00:57;;;;;;;5.57;3.50;;;;;;;;;;6232124;22;20384;-92
2023/07/01 05:03:23;;;;;;;4.20;2.90;;;;;;;;;;6230885;22;20381;-92
2023/07/01 05:05:49;;;;;;;3.30;3.00;;;;;;;;;;6236615;22;20382;-93
2023/07/01 05:08:15;;;;;;;7.70;3.30;;;;;;;;;;6232035;22;20413;-92
2023/07/01 05:10:41;;;;;;;4.93;3.20;;;;;;;;;;6233802;22;20805;-92
2023/07/01 05:13:07;;;;;;;3.80;2.93;;;;;;;;;;6231074;22;20369;-91
2023/07/01 05:15:33;;;;;;;7.93;3.23;;;;;;;;;;6233169;22;20385;-92
2023/07/01 05:17:59;;;;;;;3.23;2.80;;;;;;;;;;6231640;22;20373;-93
2023/07/01 05:20:25;;;;;;;3.47;2.47;;;;;;;;;;6231619;22;20435;-92
2023/07/01 05:22:51;;;;;;;4.20;3.03;;;;;;;;;;6231549;22;20476;-92
2023/07/01 05:25:17;;;;;;;4.30;3.37;;;;;;;;;;6234778;22;20385;-90
2023/07/01 05:27:43;;;;;;;3.70;3.00;;;;;;;;;;6233101;22;20381;-93
2023/07/01 05:30:09;;;;;;;5.13;2.70;;;;;;;;;;6231943;22;20428;-90
2023/07/01 05:32:35;;;;;;;3.77;3.00;;;;;;;;;;6233236;22;20373;-90
2023/07/01 05:35:04;;;;;;;4.10;2.87;;;;;;;;;;6231939;22;20423;-92
2023/07/01 05:37:30;;;;;;;3.80;2.83;;;;;;;;;;6235510;22;20381;-90
2023/07/01 05:39:56;;;;;;;5.53;2.50;;;;;;;;;;6231377;22;20384;-90
2023/07/01 05:42:22;;;;;;;7.13;2.83;;;;;;;;;;6234423;22;20438;-91
2023/07/01 05:44:48;;;;;;;2.93;2.13;;;;;;;;;;6233360;22;20917;-91
2023/07/01 05:47:14;;;;;;;3.27;2.60;;;;;;;;;;6233198;22;20378;-92
2023/07/01 05:49:40;;;;;;;5.10;2.30;;;;;;;;;;6232530;22;20377;-90
2023/07/01 05:52:06;;;;;;;13.03;2.77;;;;;;;;;;6234296;22;20875;-92
2023/07/01 05:54:32;;;;;;;3.60;2.97;;;;;;;;;;6231993;22;20389;-92
2023/07/01 05:56:58;;;;;;;6.43;2.70;;;;;;;;;;6236055;22;20372;-91
2023/07/01 05:59:24;;;;;;;4.67;2.70;;;;;;;;;;6231183;22;20452;-91
2023/07/01 06:01:50;;;;;;;3.97;2.50;;;;;;;;;;6233522;22;20381;-91
2023/07/01 06:04:16;;;;;;;4.13;2.67;;;;;;;;;;6228628;22;20431;-91
2023/07/01 06:06:42;;;;;;;3.40;2.73;;;;;;;;;;6232077;22;20435;-89
2023/07/01 06:09:09;;;;;;;5.60;2.57;;;;;;;;;;6256525;22;20488;-90
2023/07/01 06:11:35;;;;;;;3.30;2.90;;;;;;;;;;6234774;22;20425;-91
2023/07/01 06:14:02;;;;;;;4.90;2.80;;;;;;;;;;6226468;22;20810;-91
2023/07/01 06:16:28;;;;;;;3.83;2.50;;;;;;;;;;6232268;22;20462;-92
2023/07/01 06:18:54;;;;;;;3.97;2.20;;;;;;;;;;6232579;22;20382;-90
2023/07/01 06:21:21;;;;;;;3.30;2.60;;;;;;;;;;6234084;22;20712;-91
2023/07/01 06:23:47;;;;;;;3.50;2.20;;;;;;;;;;6230749;22;20385;-91
2023/07/01 06:26:13;;;;;;;3.23;2.43;;;;;;;;;;6231488;22;20416;-91
2023/07/01 06:28:39;;;;;;;3.30;2.40;;;;;;;;;;6233764;22;20393;-90
2023/07/01 06:31:05;;;;;;;5.27;3.47;;;;;;;;;;6233964;22;20425;-91
2023/07/01 06:33:36;;;;;;;2.40;2.20;;;;;;;;;;6231024;22;20373;-91
2023/07/01 06:36:02;;;;;;;3.13;2.83;;;;;;;;;;6233810;22;20465;-91
2023/07/01 06:38:28;;;;;;;4.63;2.27;;;;;;;;;;6232101;22;20386;-91
2023/07/01 06:40:54;;;;;;;4.40;2.40;;;;;;;;;;6230613;22;20377;-91
2023/07/01 06:43:20;;;;;;;5.57;2.87;;;;;;;;;;6232046;22;20435;-89
2023/07/01 06:45:46;;;;;;;4.23;2.10;;;;;;;;;;6235201;22;20417;-92
2023/07/01 06:48:12;;;;;;;4.20;1.97;;;;;;;;;;6233617;22;20378;-91
2023/07/01 06:50:38;;;;;;;3.70;1.90;;;;;;;;;;6233107;22;20417;-91
2023/07/01 06:53:04;;;;;;;4.13;2.00;;;;;;;;;;6231754;22;20401;-92
2023/07/01 06:55:31;;;;;;;7.30;2.27;;;;;;;;;;6230413;22;20463;-90
2023/07/01 06:57:58;;;;;;;2.97;2.10;;;;;;;;;;6231647;22;20396;-91
2023/07/01 07:00:24;;;;;;;5.07;2.47;;;;;;;;;;6234165;22;20488;-91
2023/07/01 07:02:50;;;;;;;4.63;2.40;;;;;;;;;;6232610;22;20450;-93
2023/07/01 07:05:16;;;;;;;5.10;2.07;;;;;;;;;;6235171;22;20785;-91
2023/07/01 07:07:42;;;;;;;5.57;3.10;;;;;;;;;;6232081;22;20405;-92
2023/07/01 07:10:08;;;;;;;2.60;1.80;;;;;;;;;;6231502;22;20424;-91
2023/07/01 07:12:34;;;;;;;4.20;2.00;;;;;;;;;;6229085;22;20369;-91
2023/07/01 07:15:01;;;;;;;3.23;1.93;;;;;;;;;;6231038;22;20408;-91
2023/07/01 07:17:27;;;;;;;5.43;2.47;;;;;;;;;;6231437;22;20396;-91
2023/07/01 07:19:53;;;;;;;3.50;2.27;;;;;;;;;;6229267;22;20980;-89
2023/07/01 07:22:19;;;;;;;8.80;2.60;;;;;;;;;;6230414;22;20396;-89
2023/07/01 07:24:45;;;;;;;3.30;2.60;;;;;;;;;;6229443;22;20758;-89
2023/07/01 07:27:11;;;;;;;3.30;2.07;;;;;;;;;;6229264;22;20395;-89
2023/07/01 07:29:38;;;;;;;3.60;2.37;;;;;;;;;;6229346;22;20880;-90
2023/07/01 07:32:04;;;;;;;3.20;2.33;;;;;;;;;;6231695;22;20468;-89
2023/07/01 07:34:30;;;;;;;4.77;3.10;;;;;;;;;;6230997;22;20402;-90
2023/07/01 07:36:57;;;;;;;2.97;2.20;;;;;;;;;;6233646;22;20385;-90
2023/07/01 07:39:23;;;;;;;3.30;2.37;;;;;;;;;;6229400;22;20409;-90
2023/07/01 07:41:52;;;;;;;3.47;2.40;;;;;;;;;;6230051;22;20396;-89
2023/07/01 07:44:18;;;;;;;2.77;2.20;;;;;;;;;;6230629;22;20374;-90
2023/07/01 07:46:45;;;;;;;4.17;2.73;;;;;;;;;;6232998;22;20841;-90
2023/07/01 07:49:11;;;;;;;3.07;2.17;;;;;;;;;;6232020;22;20396;-91
2023/07/01 07:51:37;;;;;;;3.77;3.47;;;;;;;;;;6230661;22;20550;-90
2023/07/01 07:54:03;;;;;;;5.17;2.40;;;;;;;;;;6230817;22;20384;-91
2023/07/01 07:56:29;;;;;;;3.70;2.90;;;;;;;;;;6229604;22;20395;-91
2023/07/01 07:58:55;;;;;;;5.43;2.73;;;;;;;;;;6233721;22;20420;-88
2023/07/01 08:01:21;;;;;;;3.80;2.30;;;;;;;;;;6229231;22;20385;-90
2023/07/01 08:03:47;;;;;;;3.27;2.70;;;;;;;;;;6231434;22;20385;-90
2023/07/01 08:06:13;;;;;;;3.70;2.77;;;;;;;;;;6230655;22;20732;-90
2023/07/01 08:08:39;;;;;;;5.40;2.60;;;;;;;;;;6232445;22;20469;-90
2023/07/01 08:11:05;;;;;;;3.57;2.73;;;;;;;;;;6230463;22;20426;-90
2023/07/01 08:13:31;;;;;;;3.47;2.67;;;;;;;;;;6258720;22;20405;-89
2023/07/01 08:15:57;;;;;;;9.67;3.17;;;;;;;;;;6231505;22;20361;-89
2023/07/01 08:18:23;;;;;;;5.03;2.60;;;;;;;;;;6231601;22;20777;-89
2023/07/01 08:20:50;;;;;;;4.80;2.70;;;;;;;;;;6232821;22;20433;-90
2023/07/01 08:23:17;;;;;;;3.30;2.70;;;;;;;;;;6230468;22;20381;-90
2023/07/01 08:25:43;;;;;;;5.83;3.40;;;;;;;;;;6234919;22;20404;-90
2023/07/01 08:28:09;;;;;;;4.73;2.50;;;;;;;;;;6229842;22;20377;-90
2023/07/01 08:30:35;;;;;;;3.53;2.60;;;;;;;;;;6232577;22;20421;-90
2023/07/01 08:33:00;;;;;;;7.67;3.17;;;;;;;;;;6230093;22;20370;-89
2023/07/01 08:35:26;;;;;;;3.43;2.87;;;;;;;;;;6231276;22;20682;-90
2023/07/01 08:37:52;;;;;;;7.80;2.83;;;;;;;;;;6229411;22;20420;-91
2023/07/01 08:40:18;;;;;;;4.23;3.00;;;;;;;;;;6234638;22;20389;-89
2023/07/01 08:42:50;;;;;;;4.47;2.87;;;;;;;;;;6256582;22;20374;-91
2023/07/01 08:45:16;;;;;;;2.77;2.50;;;;;;;;;;6259588;22;20353;-88
2023/07/01 08:47:42;;;;;;;2.90;2.60;;;;;;;;;;6231008;22;20460;-91
2023/07/01 08:50:08;;;;;;;3.93;2.50;;;;;;;;;;6231655;22;20444;-91
2023/07/01 08:52:37;;;;;;;3.27;2.53;;;;;;;;;;6231603;22;20443;-91
2023/07/01 08:55:04;;;;;;;2.50;2.30;;;;;;;;;;6234053;22;20757;-91
2023/07/01 08:57:30;;;;;;;3.07;2.33;;;;;;;;;;6231526;22;20412;-89
2023/07/01 08:59:56;;;;;;;3.83;2.03;;;;;;;;;;6231731;22;20373;-90
2023/07/01 09:02:22;;;;;;;3.50;2.37;;;;;;;;;;6256135;22;20372;-90
2023/07/01 09:04:48;;;;;;;3.50;2.63;;;;;;;;;;6230527;22;20373;-89
2023/07/01 09:07:14;;;;;;;7.97;2.23;;;;;;;;;;6231605;22;20445;-89
2023/07/01 09:09:40;;;;;;;4.53;2.40;;;;;;;;;;6231945;22;20383;-90
2023/07/01 09:12:06;;;;;;;4.63;2.10;;;;;;;;;;6231805;22;20409;-89
2023/07/01 09:14:51;;;;;;;5.80;2.80;;;;;;;;;;6231006;22;20817;-89
2023/07/01 09:17:26;;;;;;;4.17;2.70;;;;;;;;;;6255898;22;20401;-90
2023/07/01 09:19:52;;;;;;;4.37;2.13;;;;;;;;;;6230764;22;20444;-89
2023/07/01 09:22:18;;;;;;;3.40;2.70;;;;;;;;;;6230113;22;20373;-89
2023/07/01 09:24:45;;;;;;;4.27;2.23;;;;;;;;;;6256019;22;20452;-90
2023/07/01 09:27:14;;;;;;;3.50;2.70;;;;;;;;;;6228343;22;20394;-89
2023/07/01 09:29:40;;;;;;;3.50;2.63;;;;;;;;;;6230580;22;20365;-88
2023/07/01 09:32:06;;;;;;;4.73;2.10;;;;;;;;;;6229006;22;20489;-90
2023/07/01 09:34:58;;;;;;;4.43;2.20;;;;;;;;;;6231520;22;20392;-88
2023/07/01 09:37:28;;;;;;;3.27;2.27;;;;;;;;;;6256691;22;20384;-89
2023/07/01 09:39:54;;;;;;;2.80;2.10;;;;;;;;;;6229863;22;20385;-89
2023/07/01 09:42:20;;;;;;;4.10;3.67;;;;;;;;;;6229289;22;20388;-89
2023/07/01 09:45:12;;;;;;;4.70;2.90;;;;;;;;;;6256363;22;20400;-91
2023/07/01 09:47:38;;;;;;;3.13;2.13;;;;;;;;;;6257136;22;20380;-89
2023/07/01 09:50:05;;;;;;;3.93;2.40;;;;;;;;;;6229125;22;20385;-88
2023/07/01 09:52:34;;;;;;;5.30;2.30;;;;;;;;;;6231707;22;20382;-90
2023/07/01 09:55:00;;;;;;;2.80;2.30;;;;;;;;;;6227881;22;20421;-89
2023/07/01 09:57:26;;;;;;;3.57;2.43;;;;;;;;;;6227900;22;20416;-89
2023/07/01 09:59:53;;;;;;;3.33;2.53;;;;;;;;;;6227428;22;20416;-89
2023/07/01 10:02:19;;;;;;;3.57;2.80;;;;;;;;;;6230989;22;20384;-89
2023/07/01 10:04:46;;;;;;;7.27;3.03;;;;;;;;;;6234768;22;20472;-93
2023/07/01 10:07:12;;;;;;;4.60;3.80;;;;;;;;;;6230738;22;20384;-91
2023/07/01 10:09:44;;;;;;;4.20;2.80;;;;;;;;;;6233301;22;20389;-94
2023/07/01 10:12:10;;;;;;;3.70;2.30;;;;;;;;;;6227575;22;20663;-89
2023/07/01 10:14:36;;;;;;;5.07;2.87;;;;;;;;;;6229697;22;20468;-85
2023/07/01 10:17:03;;;;;;;3.93;2.70;;;;;;;;;;6252146;22;20429;-87
2023/07/01 10:19:29;;;;;;;8.47;2.47;;;;;;;;;;6230782;22;20698;-86
2023/07/01 10:22:14;;;;;;;4.10;2.53;;;;;;;;;;6251713;22;20370;-88
2023/07/01 10:24:40;;;;;;;3.73;2.50;;;;;;;;;;6252638;22;20364;-86
2023/07/01 10:27:06;;;;;;;4.07;3.10;;;;;;;;;;6252261;22;20861;-87
2023/07/01 10:29:33;;;;;;;5.37;3.77;;;;;;;;;;6227567;22;20412;-84
2023/07/01 10:32:11;;;;;;;5.70;3.00;;;;;;;;;;6251947;22;20417;-87
2023/07/01 10:34:53;;;;;;;4.30;2.40;;;;;;;;;;6255042;22;20369;-86
2023/07/01 10:37:28;;;;;;;4.93;2.83;;;;;;;;;;6252871;22;20924;-92
2023/07/01 10:39:54;;;;;;;4.53;2.50;;;;;;;;;;6231392;22;20437;-90
2023/07/01 10:42:34;;;;;;;4.10;2.67;;;;;;;;;;6232451;22;20385;-91
2023/07/01 10:45:12;;;;;;;3.97;2.23;;;;;;;;;;6232463;22;20743;-91
2023/07/01 10:47:44;;;;;;;6.00;2.83;;;;;;;;;;6256952;22;20392;-92
2023/07/01 10:50:13;;;;;;;2.80;2.10;;;;;;;;;;6232518;22;20421;-90
2023/07/01 10:52:58;;;;;;;5.37;3.07;;;;;;;;;;6238823;22;20385;-91
2023/07/01 10:55:46;;;;;;;8.00;2.47;;;;;;;;;;6258864;22;20384;-90
2023/07/01 10:58:22;;;;;;;3.57;2.70;;;;;;;;;;6257880;22;20377;-89
2023/07/01 11:00:51;;;;;;;4.10;2.70;;;;;;;;;;6283519;22;20388;-89
2023/07/01 11:03:36;;;;;;;4.00;2.70;;;;;;;;;;6233251;22;20881;-89
2023/07/01 11:06:10;;;;;;;4.63;2.50;;;;;;;;;;6256368;22;20373;-89
2023/07/01 11:08:45;;;;;;;3.33;2.30;;;;;;;;;;6234712;22;20801;-89
2023/07/01 11:11:11;;;;;;;3.57;2.50;;;;;;;;;;6256061;22;20442;-89
2023/07/01 11:13:37;;;;;;;3.40;2.77;;;;;;;;;;6232480;22;20760;-90
2023/07/01 11:16:07;;;;;;;3.57;2.23;;;;;;;;;;6233163;22;20411;-89
2023/07/01 11:18:42;;;;;;;3.50;2.30;;;;;;;;;;6231456;22;20381;-89
2023/07/01 11:21:12;;;;;;;3.67;2.53;;;;;;;;;;6256834;22;20384;-89
2023/07/01 11:23:41;;;;;;;4.20;2.90;;;;;;;;;;6198568;23;20394;-90
2023/07/01 11:26:07;;;;;;;4.30;2.90;;;;;;;;;;6169622;23;20475;-90
2023/07/01 11:28:33;;;;;;;4.83;3.70;;;;;;;;;;6170011;23;20375;-90
2023/07/01 11:31:18;;;;;;;4.73;2.77;;;;;;;;;;6195836;23;20427;-90
2023/07/01 11:33:50;;;;;;;6.30;2.97;;;;;;;;;;6171380;23;20383;-89
2023/07/01 11:36:17;;;;;;;4.50;2.60;;;;;;;;;;6169646;23;20447;-89
2023/07/01 11:38:47;;;;;;;3.23;2.60;;;;;;;;;;6172809;23;20398;-89
2023/07/01 11:41:16;;;;;;;3.63;2.50;;;;;;;;;;6170335;23;20383;-89
2023/07/01 11:43:42;;;;;;;6.37;3.20;;;;;;;;;;6170583;23;20422;-89
2023/07/01 11:46:09;;;;;;;4.73;2.57;;;;;;;;;;6195029;23;20395;-90
2023/07/01 11:48:35;;;;;;;5.17;2.50;;;;;;;;;;6170060;23;20418;-90
2023/07/01 11:51:01;;;;;;;7.10;2.80;;;;;;;;;;6171264;23;20431;-90
2023/07/01 11:53:27;;;;;;;4.97;3.63;;;;;;;;;;6171506;22;20367;-90
2023/07/01 11:55:56;;;;;;;6.90;5.47;;;;;;;;;;6231597;22;20378;-91
2023/07/01 11:58:25;;;;;;;9.10;6.13;;;;;;;;;;6231848;22;20382;-91
2023/07/01 12:00:51;;;;;;;3.67;2.80;;;;;;;;;;6252956;22;20597;-90
2023/07/01 12:03:17;;;;;;;4.20;2.53;;;;;;;;;;6233946;22;20397;-91
2023/07/01 12:05:46;;;;;;;3.50;2.60;;;;;;;;;;6231336;22;20474;-90
2023/07/01 12:08:12;;;;;;;6.10;3.70;;;;;;;;;;6232764;22;20416;-91
2023/07/01 12:10:38;;;;;;;3.73;2.30;;;;;;;;;;6193289;23;20431;-92
2023/07/01 12:13:08;;;;;;;4.10;2.50;;;;;;;;;;6170525;23;20422;-92
2023/07/01 12:15:50;;;;;;;4.77;2.90;;;;;;;;;;6172348;23;20457;-90
2023/07/01 12:18:24;;;;;;;4.87;2.47;;;;;;;;;;6171322;23;20763;-92
2023/07/01 12:20:50;;;;;;;6.57;3.57;;;;;;;;;;6170886;23;20909;-93
2023/07/01 12:23:16;;;;;;;3.87;2.47;;;;;;;;;;6176012;23;20473;-96
2023/07/01 12:26:04;;;;;;;3.03;2.10;;;;;;;;;;6175396;23;20445;-95
2023/07/01 12:28:53;;;;;;;4.97;2.30;;;;;;;;;;6175348;23;20391;-95
2023/07/01 12:34:51;;;;;;;4.30;3.47;;;;;;;;;;6189596;23;20384;-96
2023/07/01 12:37:18;;;;;;;4.13;2.47;;;;;;;;;;6168932;23;20400;-95
2023/07/01 12:39:46;;;;;;;3.70;2.67;;;;;;;;;;6171958;23;20384;-95
2023/07/01 12:42:12;;;;;;;5.23;3.23;;;;;;;;;;6216489;23;20909;-94
2023/07/01 12:44:39;;;;;;;7.13;2.30;;;;;;;;;;6232728;23;20479;-92
2023/07/01 12:47:07;;;;;;;4.73;2.03;;;;;;;;;;6230709;23;20929;-94
2023/07/01 12:49:33;;;;;;;2.67;1.67;;;;;;;;;;6231225;23;20381;-94
2023/07/01 12:52:00;;;;;;;4.73;2.63;;;;;;;;;;6230604;23;20421;-93
2023/07/01 12:54:26;;;;;;;6.90;2.30;;;;;;;;;;6232279;23;20355;-92
2023/07/01 12:56:52;;;;;;;3.23;2.10;;;;;;;;;;6230743;23;20379;-93
2023/07/01 12:59:18;;;;;;;3.90;2.80;;;;;;;;;;6220714;23;20372;-92
2023/07/01 13:01:45;;;;;;;5.60;3.60;;;;;;;;;;6138619;23;20389;-93
2023/07/01 13:04:11;;;;;;;4.20;2.53;;;;;;;;;;6140515;23;20412;-93
2023/07/01 13:06:38;;;;;;;3.00;1.97;;;;;;;;;;6139212;23;20407;-94
2023/07/01 13:09:04;;;;;;;3.53;2.60;;;;;;;;;;6139829;23;20400;-93
2023/07/01 13:11:36;;;;;;;3.07;2.07;;;;;;;;;;6114350;23;20484;-93
2023/07/01 13:14:02;;;;;;;4.73;1.67;;;;;;;;;;6139576;23;20393;-94
2023/07/01 13:16:31;;;;;;;4.63;2.03;;;;;;;;;;6116418;23;20392;-93
2023/07/01 13:18:58;;;;;;;4.60;2.20;;;;;;;;;;6113620;23;20381;-93
2023/07/01 13:21:24;;;;;;;2.87;2.17;;;;;;;;;;6115497;23;20411;-93
2023/07/01 13:23:53;;;;;;;2.53;1.80;;;;;;;;;;6116836;23;20413;-93
2023/07/01 13:26:19;;;;;;;4.03;1.70;;;;;;;;;;6138027;23;20417;-93
2023/07/01 13:28:45;;;;;;;3.50;2.27;;;;;;;;;;6117518;23;20396;-93
2023/07/01 13:31:15;;;;;;;3.23;1.80;;;;;;;;;;6131106;23;20785;-94
2023/07/01 13:33:43;;;;;;;4.33;1.80;;;;;;;;;;6166380;23;20385;-93
2023/07/01 13:36:10;;;;;;;4.33;2.30;;;;;;;;;;6143938;23;20427;-93
2023/07/01 13:38:37;;;;;;;3.20;2.40;;;;;;;;;;6145343;23;20380;-93
2023/07/01 13:41:03;;;;;;;5.47;3.10;;;;;;;;;;6142685;23;21123;-94
2023/07/01 13:43:29;;;;;;;3.60;2.70;;;;;;;;;;6142964;23;20388;-93
2023/07/01 13:45:55;;;;;;;4.00;2.90;;;;;;;;;;6143488;23;20848;-92
2023/07/01 13:48:37;;;;;;;2.70;2.00;;;;;;;;;;6145389;23;20376;-92
2023/07/01 13:51:04;;;;;;;2.83;2.03;;;;;;;;;;6143561;23;20466;-93
2023/07/01 13:53:32;;;;;;;3.57;2.50;;;;;;;;;;6144250;23;20438;-93
2023/07/01 13:55:58;;;;;;;3.83;2.23;;;;;;;;;;6147465;23;20395;-93
2023/07/01 13:58:24;;;;;;;3.07;2.00;;;;;;;;;;6147469;23;20392;-94
2023/07/01 14:00:53;;;;;;;3.90;1.90;;;;;;;;;;6147776;23;20603;-94
2023/07/01 14:03:22;;;;;;;3.53;2.30;;;;;;;;;;6234771;22;20384;-92
2023/07/01 14:05:49;;;;;;;4.73;2.57;;;;;;;;;;6260469;22;20397;-91
2023/07/01 14:08:15;;;;;;;2.50;1.90;;;;;;;;;;6230351;23;21077;-92
2023/07/01 14:10:41;;;;;;;4.80;2.10;;;;;;;;;;6228865;23;20733;-93
2023/07/01 14:13:08;;;;;;;3.20;2.10;;;;;;;;;;6230063;23;20398;-93
2023/07/01 14:15:37;;;;;;;2.70;1.90;;;;;;;;;;6228821;23;20382;-90
2023/07/01 14:18:09;;;;;;;3.73;2.27;;;;;;;;;;6257041;22;20382;-93
2023/07/01 14:20:35;;;;;;;3.10;2.00;;;;;;;;;;6255749;23;20374;-92
2023/07/01 14:23:04;;;;;;;3.20;2.27;;;;;;;;;;6229540;23;20865;-93
2023/07/01 14:25:34;;;;;;;3.10;2.17;;;;;;;;;;6230872;23;20381;-93
2023/07/01 14:28:04;;;;;;;5.57;4.07;;;;;;;;;;6233533;23;20463;-92
2023/07/01 14:30:52;;;;;;;5.33;3.60;;;;;;;;;;6230725;23;20433;-94
2023/07/01 14:33:18;;;;;;;3.40;1.80;;;;;;;;;;6231430;23;20386;-93
2023/07/01 14:35:48;;;;;;;5.43;4.63;;;;;;;;;;6230581;23;20406;-93
2023/07/01 14:38:15;;;;;;;2.83;1.80;;;;;;;;;;6230962;23;20378;-95
2023/07/01 14:40:41;;;;;;;3.03;2.13;;;;;;;;;;6232829;23;20386;-92
2023/07/01 14:43:07;;;;;;;3.00;2.23;;;;;;;;;;6231941;23;20872;-94
2023/07/01 14:45:35;;;;;;;5.63;4.53;;;;;;;;;;6235879;23;20857;-96
2023/07/01 14:48:02;;;;;;;4.70;2.30;;;;;;;;;;6235288;23;20408;-95
2023/07/01 14:50:28;;;;;;;3.60;1.67;;;;;;;;;;6182298;23;20401;-93